Time;durP1;ratioP1;P1;durP2;ratioP2;P2;SDS_P1;SDS_P2;PMS_P1;PMS_P2;Temp;Humidity;BMP_temperature;BMP_pressure;BME280_temperature;BME280_humidity;BME280_pressure;Samples;Min_cycle;Max_cycle;Signal;HPM_P1;HPM_P2
2021/03/22 00:00:38;;;;;;;;;6.00;6.00;;;;;;;;5003979;28;11492;-89
2021/03/22 00:03:05;;;;;;;;;15.50;13.00;;;;;;;;4995698;28;11481;-87
2021/03/22 00:05:33;;;;;;;;;9.75;9.75;;;;;;;;5005098;28;11522;-90
2021/03/22 00:08:01;;;;;;;;;9.50;9.00;;;;;;;;5005316;28;11501;-90
2021/03/22 00:10:30;;;;;;;;;5.25;5.25;;;;;;;;5006402;28;11480;-91
2021/03/22 00:12:57;;;;;;;;;6.00;6.00;;;;;;;;5003792;28;11568;-89
2021/03/22 00:15:25;;;;;;;;;9.25;8.00;;;;;;;;5004257;28;11528;-91
2021/03/22 00:17:52;;;;;;;;;4.50;4.50;;;;;;;;5006461;28;11551;-84
2021/03/22 00:20:20;;;;;;;;;7.25;6.75;;;;;;;;5007546;28;11513;-86
2021/03/22 00:22:48;;;;;;;;;5.75;5.00;;;;;;;;5012669;28;11621;-81
2021/03/22 00:25:15;;;;;;;;;11.50;9.75;;;;;;;;5004115;28;12385;-86
2021/03/22 00:27:42;;;;;;;;;5.00;5.00;;;;;;;;5005556;28;11503;-83
2021/03/22 00:30:10;;;;;;;;;6.00;6.00;;;;;;;;5003289;28;11527;-86
2021/03/22 00:32:37;;;;;;;;;4.50;4.50;;;;;;;;5005522;28;12290;-87
2021/03/22 00:35:05;;;;;;;;;5.00;5.00;;;;;;;;5003662;28;11528;-85
2021/03/22 00:37:32;;;;;;;;;10.50;6.75;;;;;;;;5020369;28;11598;-87
2021/03/22 00:40:00;;;;;;;;;8.00;4.75;;;;;;;;5004186;28;11619;-86
2021/03/22 00:42:27;;;;;;;;;6.25;6.00;;;;;;;;5003928;28;11489;-86
2021/03/22 00:44:54;;;;;;;;;8.25;5.75;;;;;;;;5005371;28;11614;-87
2021/03/22 00:47:21;;;;;;;;;6.00;6.00;;;;;;;;5004508;28;11543;-85
2021/03/22 00:49:48;;;;;;;;;7.25;5.25;;;;;;;;5004634;28;11665;-85
2021/03/22 00:52:15;;;;;;;;;14.25;12.50;;;;;;;;5002703;28;11624;-88
2021/03/22 00:54:42;;;;;;;;;22.00;17.50;;;;;;;;5005093;28;11592;-89
2021/03/22 00:57:11;;;;;;;;;12.00;8.50;;;;;;;;5003425;28;11642;-88
2021/03/22 00:59:38;;;;;;;;;6.00;6.00;;;;;;;;4992359;28;11779;-86
2021/03/22 01:02:05;;;;;;;;;40.75;32.50;;;;;;;;5002999;28;11594;-86
2021/03/22 01:04:33;;;;;;;;;10.00;9.00;;;;;;;;5002266;28;11648;-83
2021/03/22 01:07:00;;;;;;;;;5.00;5.00;;;;;;;;5004097;28;11720;-88
2021/03/22 01:09:27;;;;;;;;;10.00;8.50;;;;;;;;5004679;28;11560;-88
2021/03/22 01:11:54;;;;;;;;;11.25;9.50;;;;;;;;5003065;28;11599;-85
2021/03/22 01:14:22;;;;;;;;;20.25;17.25;;;;;;;;5004444;28;11618;-87
2021/03/22 01:16:49;;;;;;;;;5.00;5.00;;;;;;;;5005393;28;11636;-90
2021/03/22 01:19:18;;;;;;;;;5.75;5.75;;;;;;;;5005039;28;11698;-83
2021/03/22 01:21:48;;;;;;;;;3.50;3.50;;;;;;;;5003991;28;11561;-88
2021/03/22 01:24:17;;;;;;;;;3.50;3.00;;;;;;;;4999278;28;11576;-87
2021/03/22 01:26:44;;;;;;;;;6.00;6.00;;;;;;;;5002863;28;12414;-88
2021/03/22 01:29:14;;;;;;;;;8.75;6.00;;;;;;;;5004698;28;11675;-85
2021/03/22 01:31:43;;;;;;;;;8.75;4.00;;;;;;;;5002695;28;11593;-86
2021/03/22 01:34:10;;;;;;;;;2.00;2.00;;;;;;;;4996188;28;11641;-87
2021/03/22 01:36:37;;;;;;;;;4.75;2.50;;;;;;;;5003579;28;11576;-86
2021/03/22 01:39:08;;;;;;;;;8.00;3.00;;;;;;;;5003265;28;11566;-88
2021/03/22 01:41:54;;;;;;;;;1.75;1.75;;;;;;;;5004327;28;11652;-85
2021/03/22 01:44:25;;;;;;;;;2.25;1.25;;;;;;;;5001697;28;11556;-88
2021/03/22 01:46:56;;;;;;;;;5.25;4.75;;;;;;;;5003566;28;11589;-86
2021/03/22 01:49:27;;;;;;;;;1.75;1.75;;;;;;;;4999740;28;11553;-82
2021/03/22 01:51:54;;;;;;;;;1.50;1.50;;;;;;;;5003291;28;11559;-80
2021/03/22 01:54:21;;;;;;;;;4.00;4.00;;;;;;;;5004076;28;11541;-80
2021/03/22 01:56:50;;;;;;;;;5.00;4.00;;;;;;;;5001163;28;12454;-79
2021/03/22 01:59:19;;;;;;;;;3.50;3.50;;;;;;;;5002548;28;11676;-79
2021/03/22 02:01:50;;;;;;;;;7.00;4.00;;;;;;;;5002395;28;11501;-87
2021/03/22 02:04:19;;;;;;;;;7.75;2.00;;;;;;;;5002625;28;12439;-88
2021/03/22 02:06:47;;;;;;;;;4.00;4.00;;;;;;;;5002529;28;11599;-85
2021/03/22 02:09:14;;;;;;;;;5.25;2.00;;;;;;;;5004005;28;11547;-89
2021/03/22 02:11:41;;;;;;;;;4.50;4.50;;;;;;;;5004107;28;11625;-89
2021/03/22 02:14:10;;;;;;;;;2.50;2.50;;;;;;;;4998636;28;11612;-86
2021/03/22 02:16:48;;;;;;;;;1.00;1.00;;;;;;;;5003759;28;11586;-88
2021/03/22 02:19:38;;;;;;;;;2.00;1.50;;;;;;;;5002561;28;11648;-87
2021/03/22 02:22:42;;;;;;;;;3.00;2.00;;;;;;;;5006276;28;11630;-87
2021/03/22 02:25:14;;;;;;;;;1.00;1.00;;;;;;;;5006913;28;12211;-87
2021/03/22 02:28:11;;;;;;;;;2.00;2.00;;;;;;;;5002902;28;11577;-89
2021/03/22 02:31:14;;;;;;;;;4.25;4.25;;;;;;;;4998945;28;11561;-89
2021/03/22 02:34:08;;;;;;;;;3.50;3.50;;;;;;;;5004032;28;11564;-86
2021/03/22 02:37:14;;;;;;;;;3.00;2.00;;;;;;;;5002589;28;12441;-87
2021/03/22 02:39:50;;;;;;;;;4.00;4.00;;;;;;;;4943202;28;11533;-87
2021/03/22 02:42:17;;;;;;;;;1.50;1.50;;;;;;;;4942415;28;11572;-84
2021/03/22 02:44:44;;;;;;;;;5.50;5.50;;;;;;;;4972462;28;11579;-85
2021/03/22 02:47:22;;;;;;;;;4.75;2.00;;;;;;;;5004241;28;11606;-82
2021/03/22 02:49:51;;;;;;;;;3.50;3.50;;;;;;;;5001752;28;11587;-85
2021/03/22 02:52:38;;;;;;;;;4.00;4.00;;;;;;;;5003932;28;11698;-87
2021/03/22 02:55:12;;;;;;;;;7.00;4.00;;;;;;;;5000672;28;11550;-81
2021/03/22 02:57:44;;;;;;;;;5.00;5.00;;;;;;;;5002794;28;11678;-77
2021/03/22 03:00:18;;;;;;;;;5.50;5.00;;;;;;;;5006553;28;11659;-82
2021/03/22 03:02:46;;;;;;;;;9.75;4.50;;;;;;;;5003835;28;11564;-88
2021/03/22 03:05:17;;;;;;;;;4.00;4.00;;;;;;;;5006552;28;11598;-89
2021/03/22 03:07:45;;;;;;;;;2.00;2.00;;;;;;;;5004988;28;11667;-86
2021/03/22 03:10:15;;;;;;;;;5.00;4.75;;;;;;;;5006470;28;11570;-88
2021/03/22 03:12:42;;;;;;;;;0.25;0.25;;;;;;;;5004853;28;11679;-89
2021/03/22 03:15:10;;;;;;;;;1.50;1.50;;;;;;;;5003589;28;11668;-90
2021/03/22 03:17:37;;;;;;;;;5.00;5.00;;;;;;;;5006474;28;11568;-88
2021/03/22 03:20:06;;;;;;;;;6.50;4.00;;;;;;;;5009038;28;11591;-88
2021/03/22 03:22:36;;;;;;;;;2.00;2.00;;;;;;;;5013321;28;11656;-84
2021/03/22 03:25:04;;;;;;;;;2.00;2.00;;;;;;;;5004366;28;11579;-83
2021/03/22 03:27:31;;;;;;;;;4.00;4.00;;;;;;;;5008338;28;11617;-87
2021/03/22 03:29:58;;;;;;;;;1.00;1.00;;;;;;;;5007754;28;11779;-83
2021/03/22 03:32:25;;;;;;;;;2.00;2.00;;;;;;;;5007441;28;11512;-82
2021/03/22 03:34:52;;;;;;;;;3.00;3.00;;;;;;;;5009792;28;11689;-84
2021/03/22 03:37:19;;;;;;;;;3.00;1.00;;;;;;;;5006361;28;11676;-85
2021/03/22 03:39:48;;;;;;;;;1.25;1.25;;;;;;;;5003704;28;11617;-84
2021/03/22 03:42:14;;;;;;;;;4.00;1.25;;;;;;;;5006060;28;11557;-89
2021/03/22 03:44:42;;;;;;;;;3.75;1.00;;;;;;;;5005597;28;11559;-87
2021/03/22 03:47:09;;;;;;;;;2.00;2.00;;;;;;;;5006897;28;11594;-90
2021/03/22 03:49:36;;;;;;;;;2.00;2.00;;;;;;;;5005345;28;11561;-91
2021/03/22 03:52:05;;;;;;;;;1.00;1.00;;;;;;;;5007148;28;11692;-87
2021/03/22 03:54:32;;;;;;;;;2.75;2.75;;;;;;;;5007653;28;11617;-88
2021/03/22 03:57:00;;;;;;;;;4.00;1.25;;;;;;;;5001468;28;11585;-91
2021/03/22 03:59:27;;;;;;;;;1.75;1.00;;;;;;;;5005326;28;11557;-84
2021/03/22 04:01:54;;;;;;;;;0.50;0.50;;;;;;;;5006023;28;12477;-91
2021/03/22 04:04:21;;;;;;;;;1.00;1.00;;;;;;;;5005118;28;11580;-88
2021/03/22 04:06:48;;;;;;;;;5.75;4.25;;;;;;;;5005514;28;11618;-88
2021/03/22 04:09:18;;;;;;;;;5.50;2.50;;;;;;;;5004382;28;11522;-87
2021/03/22 04:11:47;;;;;;;;;3.00;3.00;;;;;;;;5004228;28;11539;-84
2021/03/22 04:14:18;;;;;;;;;3.50;2.00;;;;;;;;5005662;28;11560;-83
2021/03/22 04:16:45;;;;;;;;;2.00;2.00;;;;;;;;5004054;28;11562;-88
2021/03/22 04:19:12;;;;;;;;;4.75;2.00;;;;;;;;5005424;28;11584;-85
2021/03/22 04:21:39;;;;;;;;;0.25;0.25;;;;;;;;5004605;28;11691;-88
2021/03/22 04:24:07;;;;;;;;;4.50;2.00;;;;;;;;5008171;28;12373;-87
2021/03/22 04:26:34;;;;;;;;;2.00;2.00;;;;;;;;5005595;28;11645;-82
2021/03/22 04:29:02;;;;;;;;;7.00;1.25;;;;;;;;5006636;28;11572;-84
2021/03/22 04:31:30;;;;;;;;;8.00;2.50;;;;;;;;5004172;28;11628;-87
2021/03/22 04:33:58;;;;;;;;;5.00;5.00;;;;;;;;5002450;28;11563;-89
2021/03/22 04:36:28;;;;;;;;;1.00;1.00;;;;;;;;5005301;28;11702;-83
2021/03/22 04:38:55;;;;;;;;;1.00;0.00;;;;;;;;5005287;28;11544;-87
2021/03/22 04:41:23;;;;;;;;;2.00;2.00;;;;;;;;5003327;28;11655;-90
2021/03/22 04:43:50;;;;;;;;;1.75;1.00;;;;;;;;5004986;28;11540;-87
2021/03/22 04:46:17;;;;;;;;;2.00;0.75;;;;;;;;5003269;28;11579;-85
2021/03/22 04:48:45;;;;;;;;;0.00;0.00;;;;;;;;5003205;28;11531;-87
2021/03/22 04:51:12;;;;;;;;;13.00;8.00;;;;;;;;5003779;28;11562;-89
2021/03/22 04:53:40;;;;;;;;;6.50;4.75;;;;;;;;5005293;28;11738;-87
2021/03/22 04:56:08;;;;;;;;;2.50;2.50;;;;;;;;5004301;28;11584;-85
2021/03/22 04:58:35;;;;;;;;;2.00;2.00;;;;;;;;5004951;28;11563;-88
2021/03/22 05:01:03;;;;;;;;;4.25;4.25;;;;;;;;5004774;28;11498;-85
2021/03/22 05:03:30;;;;;;;;;5.00;3.00;;;;;;;;5006862;28;11552;-85
2021/03/22 05:05:58;;;;;;;;;4.25;3.50;;;;;;;;5006991;28;11542;-92
2021/03/22 05:08:26;;;;;;;;;4.50;2.00;;;;;;;;5003679;28;11707;-88
2021/03/22 05:10:56;;;;;;;;;4.00;4.00;;;;;;;;5003564;28;11702;-85
2021/03/22 05:13:23;;;;;;;;;1.00;1.00;;;;;;;;5000896;28;11563;-82
2021/03/22 05:15:51;;;;;;;;;5.50;1.00;;;;;;;;5007379;28;11679;-85
2021/03/22 05:18:19;;;;;;;;;1.50;1.50;;;;;;;;5003686;28;11558;-85
2021/03/22 05:20:49;;;;;;;;;1.00;1.00;;;;;;;;4998992;28;11549;-90
2021/03/22 05:23:20;;;;;;;;;6.50;4.25;;;;;;;;5008712;28;11547;-89
2021/03/22 05:25:47;;;;;;;;;2.50;1.00;;;;;;;;5009351;28;12302;-84
2021/03/22 05:28:15;;;;;;;;;2.00;2.00;;;;;;;;5005464;28;11582;-83
2021/03/22 05:30:42;;;;;;;;;2.00;2.00;;;;;;;;5003484;28;11647;-86
2021/03/22 05:33:11;;;;;;;;;2.50;1.50;;;;;;;;5005558;28;12387;-84
2021/03/22 05:35:39;;;;;;;;;3.50;1.50;;;;;;;;5004173;28;11536;-84
2021/03/22 05:38:08;;;;;;;;;1.50;1.00;;;;;;;;5009158;28;11551;-89
2021/03/22 05:40:38;;;;;;;;;1.00;1.00;;;;;;;;5004969;28;12289;-86
2021/03/22 05:43:15;;;;;;;;;1.00;1.00;;;;;;;;5003491;28;11563;-90
2021/03/22 05:45:54;;;;;;;;;2.50;2.00;;;;;;;;5003210;28;12362;-86
2021/03/22 05:48:46;;;;;;;;;1.25;1.25;;;;;;;;4999089;28;11544;-78
2021/03/22 05:51:33;;;;;;;;;5.00;4.00;;;;;;;;5002752;28;11588;-80
2021/03/22 05:54:10;;;;;;;;;1.00;1.00;;;;;;;;5003830;28;11677;-82
2021/03/22 05:56:44;;;;;;;;;2.00;1.50;;;;;;;;5003887;28;11584;-83
2021/03/22 05:59:25;;;;;;;;;2.00;2.00;;;;;;;;5004759;28;11642;-84
2021/03/22 06:01:55;;;;;;;;;3.50;1.75;;;;;;;;5002155;28;11478;-84
2021/03/22 06:04:25;;;;;;;;;1.50;1.50;;;;;;;;5003126;28;11631;-84
2021/03/22 06:06:52;;;;;;;;;2.25;1.50;;;;;;;;5003791;28;11542;-83
2021/03/22 06:09:26;;;;;;;;;2.00;2.00;;;;;;;;5003772;28;11560;-81
2021/03/22 06:12:07;;;;;;;;;4.00;2.00;;;;;;;;5002666;28;11587;-78
2021/03/22 06:14:48;;;;;;;;;2.00;2.00;;;;;;;;4998645;28;11576;-83
2021/03/22 06:17:20;;;;;;;;;4.00;2.00;;;;;;;;5000314;28;11700;-84
2021/03/22 06:19:51;;;;;;;;;0.75;0.75;;;;;;;;5002965;28;11522;-87
2021/03/22 06:22:26;;;;;;;;;4.00;1.00;;;;;;;;5003689;28;12310;-89
2021/03/22 06:24:53;;;;;;;;;1.50;1.50;;;;;;;;5001564;28;11567;-75
2021/03/22 06:27:22;;;;;;;;;4.00;1.00;;;;;;;;5000889;28;11708;-74
2021/03/22 06:29:55;;;;;;;;;2.00;2.00;;;;;;;;5001229;28;11681;-75
2021/03/22 06:32:25;;;;;;;;;4.50;4.50;;;;;;;;5004828;28;11515;-75
2021/03/22 06:34:57;;;;;;;;;7.00;5.00;;;;;;;;5003580;28;11685;-75
2021/03/22 06:37:26;;;;;;;;;11.00;10.25;;;;;;;;5006911;28;12369;-72
2021/03/22 06:40:04;;;;;;;;;13.00;13.00;;;;;;;;5003810;28;11730;-72
2021/03/22 06:42:32;;;;;;;;;20.50;16.00;;;;;;;;5007582;28;11625;-73
2021/03/22 06:44:59;;;;;;;;;47.33;42.00;;;;;;;;5003099;28;11656;-71
2021/03/22 06:47:29;;;;;;;;;23.75;23.75;;;;;;;;5005391;28;8863;-72
2021/03/22 06:50:14;;;;;;;;;19.00;13.25;;;;;;;;5002218;28;11641;-72
2021/03/22 06:52:43;;;;;;;;;16.75;13.75;;;;;;;;5002454;28;12510;-70
2021/03/22 06:55:32;;;;;;;;;9.00;9.00;;;;;;;;5005486;28;11774;-72
2021/03/22 06:58:00;;;;;;;;;6.25;3.50;;;;;;;;5004713;28;11595;-74
2021/03/22 07:00:29;;;;;;;;;5.50;5.50;;;;;;;;4998316;28;11651;-69
2021/03/22 07:02:58;;;;;;;;;4.00;4.00;;;;;;;;5004291;28;11576;-69
2021/03/22 07:05:38;;;;;;;;;5.50;5.50;;;;;;;;5002011;28;11561;-71
2021/03/22 07:08:07;;;;;;;;;5.00;5.00;;;;;;;;5004992;28;11582;-71
2021/03/22 07:10:36;;;;;;;;;14.75;14.75;;;;;;;;5002679;28;11576;-70
2021/03/22 07:13:23;;;;;;;;;8.25;8.25;;;;;;;;5005970;28;11595;-71
2021/03/22 07:15:51;;;;;;;;;17.75;15.00;;;;;;;;5008407;28;11582;-71
2021/03/22 07:18:21;;;;;;;;;8.00;8.00;;;;;;;;5001002;28;11551;-70
2021/03/22 07:21:05;;;;;;;;;7.00;7.00;;;;;;;;5006018;28;11577;-70
2021/03/22 07:23:55;;;;;;;;;19.50;17.00;;;;;;;;5001886;28;11533;-72
2021/03/22 07:26:29;;;;;;;;;31.50;27.50;;;;;;;;4999440;28;13070;-70
2021/03/22 07:29:26;;;;;;;;;34.50;30.50;;;;;;;;5006442;28;11579;-70
2021/03/22 07:31:59;;;;;;;;;26.75;22.00;;;;;;;;5002568;28;11597;-71
2021/03/22 07:34:38;;;;;;;;;18.75;18.75;;;;;;;;5003630;28;11605;-71
2021/03/22 07:37:15;;;;;;;;;29.00;22.50;;;;;;;;5001733;28;11631;-71
2021/03/22 07:39:47;;;;;;;;;11.75;8.75;;;;;;;;5000522;28;11614;-70
2021/03/22 07:42:45;;;;;;;;;27.50;23.50;;;;;;;;5004372;28;11558;-72
2021/03/22 07:45:33;;;;;;;;;16.00;13.00;;;;;;;;4959450;28;11620;-73
2021/03/22 07:48:17;;;;;;;;;12.00;7.00;;;;;;;;4997625;28;11604;-71
2021/03/22 07:50:51;;;;;;;;;18.75;14.50;;;;;;;;5004670;28;11553;-71
2021/03/22 07:53:24;;;;;;;;;12.00;8.50;;;;;;;;5000852;28;11623;-73
2021/03/22 07:55:53;;;;;;;;;22.75;18.75;;;;;;;;5004297;28;11677;-72
2021/03/22 07:58:46;;;;;;;;;20.25;16.25;;;;;;;;5002319;28;11623;-72
2021/03/22 08:01:19;;;;;;;;;10.75;9.00;;;;;;;;4996847;28;12402;-71
2021/03/22 08:04:03;;;;;;;;;8.75;5.25;;;;;;;;5003328;28;12324;-73
2021/03/22 08:06:50;;;;;;;;;9.25;9.25;;;;;;;;5001268;28;11632;-70
2021/03/22 08:09:34;;;;;;;;;13.25;9.50;;;;;;;;5004096;28;11586;-71
2021/03/22 08:12:07;;;;;;;;;6.50;5.00;;;;;;;;5003108;28;11576;-70
2021/03/22 08:14:36;;;;;;;;;12.50;9.50;;;;;;;;5003265;28;11551;-72
2021/03/22 08:17:35;;;;;;;;;6.00;5.50;;;;;;;;5004031;28;11506;-71
2021/03/22 08:20:11;;;;;;;;;20.50;20.50;;;;;;;;5007926;28;11502;-72
2021/03/22 08:22:42;;;;;;;;;10.75;10.75;;;;;;;;5007068;28;11551;-74
2021/03/22 08:25:27;;;;;;;;;10.50;7.25;;;;;;;;5002736;28;11524;-74
2021/03/22 08:27:59;;;;;;;;;5.50;5.50;;;;;;;;5004070;28;11777;-70
2021/03/22 08:30:32;;;;;;;;;18.75;17.50;;;;;;;;5008225;28;11535;-71
2021/03/22 08:33:05;;;;;;;;;12.00;10.25;;;;;;;;5004767;28;11573;-71
2021/03/22 08:35:38;;;;;;;;;19.25;17.00;;;;;;;;5003567;28;11510;-71
2021/03/22 08:38:08;;;;;;;;;24.00;21.25;;;;;;;;4995937;28;11690;-70
2021/03/22 08:40:42;;;;;;;;;23.75;19.00;;;;;;;;4999920;28;12294;-71
2021/03/22 08:43:27;;;;;;;;;21.00;20.50;;;;;;;;5004211;28;12331;-70
2021/03/22 08:46:06;;;;;;;;;14.25;14.25;;;;;;;;5001243;28;11608;-71
2021/03/22 08:48:34;;;;;;;;;46.75;41.25;;;;;;;;5004336;28;11568;-73
2021/03/22 08:51:04;;;;;;;;;33.75;28.00;;;;;;;;5003125;28;11731;-71
2021/03/22 08:53:35;;;;;;;;;6.75;6.75;;;;;;;;5003984;28;11684;-71
2021/03/22 08:56:07;;;;;;;;;10.25;10.25;;;;;;;;5001701;28;11115;-71
2021/03/22 08:58:37;;;;;;;;;13.25;13.25;;;;;;;;5003238;28;11539;-71
2021/03/22 09:01:28;;;;;;;;;12.25;11.50;;;;;;;;5003419;28;12261;-72
2021/03/22 09:03:58;;;;;;;;;14.50;10.75;;;;;;;;5001974;28;11581;-73
2021/03/22 09:06:27;;;;;;;;;9.50;8.50;;;;;;;;5003535;28;11564;-70
2021/03/22 09:09:19;;;;;;;;;14.00;11.00;;;;;;;;5001574;28;11569;-72
2021/03/22 09:11:48;;;;;;;;;15.50;14.00;;;;;;;;5001950;28;11640;-72
2021/03/22 09:14:31;;;;;;;;;17.75;12.00;;;;;;;;5002412;28;11583;-73
2021/03/22 09:17:00;;;;;;;;;17.50;17.50;;;;;;;;5001866;28;11320;-73
2021/03/22 09:19:42;;;;;;;;;10.25;10.25;;;;;;;;5003384;28;11564;-72
2021/03/22 09:22:45;;;;;;;;;10.00;7.75;;;;;;;;5005317;28;11883;-70
2021/03/22 09:25:34;;;;;;;;;20.25;20.25;;;;;;;;5002956;28;11152;-72
2021/03/22 09:28:36;;;;;;;;;10.00;8.25;;;;;;;;5002231;28;11572;-72
2021/03/22 09:31:05;;;;;;;;;11.50;9.75;;;;;;;;4986135;28;11070;-72
2021/03/22 09:33:51;;;;;;;;;10.50;7.00;;;;;;;;5001478;28;11101;-72
2021/03/22 09:36:41;;;;;;;;;6.00;2.75;;;;;;;;5000973;28;11057;-72
2021/03/22 09:39:47;;;;;;;;;8.75;6.00;;;;;;;;4997805;28;10865;-73
2021/03/22 09:42:24;;;;;;;;;5.00;5.00;;;;;;;;5006035;28;10952;-72
2021/03/22 09:45:12;;;;;;;;;6.50;6.50;;;;;;;;4999439;28;10839;-72
2021/03/22 09:47:40;;;;;;;;;12.50;12.00;;;;;;;;5001395;28;11036;-72
2021/03/22 09:50:19;;;;;;;;;12.00;12.00;;;;;;;;5002747;28;11307;-72
2021/03/22 09:53:16;;;;;;;;;12.25;11.25;;;;;;;;4996693;28;11171;-73
2021/03/22 09:56:00;;;;;;;;;7.75;5.75;;;;;;;;4995459;28;11067;-73
2021/03/22 09:58:37;;;;;;;;;14.00;14.00;;;;;;;;4991716;28;10926;-73
2021/03/22 10:01:07;;;;;;;;;14.00;11.75;;;;;;;;4997893;28;11153;-72
2021/03/22 10:03:55;;;;;;;;;13.50;10.00;;;;;;;;4998480;28;12035;-71
2021/03/22 10:06:52;;;;;;;;;9.50;9.50;;;;;;;;5001692;28;11508;-71
2021/03/22 10:09:23;;;;;;;;;13.00;11.25;;;;;;;;5002565;28;11049;-71
2021/03/22 10:11:54;;;;;;;;;10.00;10.00;;;;;;;;5005848;28;11255;-70
2021/03/22 10:14:31;;;;;;;;;9.00;6.25;;;;;;;;5006649;28;11232;-71
2021/03/22 10:16:59;;;;;;;;;6.50;6.50;;;;;;;;5004562;28;10884;-72
2021/03/22 10:19:28;;;;;;;;;5.50;5.00;;;;;;;;5006876;28;10876;-71
2021/03/22 10:21:58;;;;;;;;;9.75;6.00;;;;;;;;5005876;28;10715;-72
2021/03/22 10:24:34;;;;;;;;;5.50;5.00;;;;;;;;5000509;28;10662;-71
2021/03/22 10:27:03;;;;;;;;;5.00;5.00;;;;;;;;5006289;28;10599;-71
2021/03/22 10:29:34;;;;;;;;;10.00;7.00;;;;;;;;5004850;28;11572;-71
2021/03/22 10:32:07;;;;;;;;;6.75;5.00;;;;;;;;5007867;28;10818;-71
2021/03/22 10:34:41;;;;;;;;;9.75;5.75;;;;;;;;5014058;28;10706;-70
2021/03/22 10:37:11;;;;;;;;;19.50;16.75;;;;;;;;5015082;28;11618;-71
2021/03/22 10:39:40;;;;;;;;;8.00;8.00;;;;;;;;5004475;28;11242;-70
2021/03/22 10:42:40;;;;;;;;;10.25;7.75;;;;;;;;5011681;28;11018;-71
2021/03/22 10:45:27;;;;;;;;;7.25;6.75;;;;;;;;5004820;28;10991;-71
2021/03/22 10:47:55;;;;;;;;;16.00;13.25;;;;;;;;5004798;28;10731;-70
2021/03/22 10:50:25;;;;;;;;;10.25;7.00;;;;;;;;5004608;28;11011;-71
2021/03/22 10:53:09;;;;;;;;;13.50;13.50;;;;;;;;5004994;28;10968;-71
2021/03/22 10:55:38;;;;;;;;;11.25;9.00;;;;;;;;5004485;28;10789;-71
2021/03/22 10:58:09;;;;;;;;;6.50;5.75;;;;;;;;5005140;28;10734;-71
2021/03/22 11:00:39;;;;;;;;;8.50;8.50;;;;;;;;5003015;28;10614;-71
2021/03/22 11:03:08;;;;;;;;;8.00;8.00;;;;;;;;5006651;28;10571;-71
2021/03/22 11:05:38;;;;;;;;;11.50;8.00;;;;;;;;5004743;28;10578;-71
2021/03/22 11:08:06;;;;;;;;;7.50;6.00;;;;;;;;5005109;28;10813;-71
2021/03/22 11:10:35;;;;;;;;;9.25;8.50;;;;;;;;5004954;28;11053;-71
2021/03/22 11:13:03;;;;;;;;;14.50;12.00;;;;;;;;5004615;28;10800;-69
2021/03/22 11:15:33;;;;;;;;;27.25;24.00;;;;;;;;5005045;28;10852;-71
2021/03/22 11:18:00;;;;;;;;;24.75;22.50;;;;;;;;5002137;28;11971;-71
2021/03/22 11:20:29;;;;;;;;;16.50;16.50;;;;;;;;5005343;28;11259;-71
2021/03/22 11:23:15;;;;;;;;;17.25;15.25;;;;;;;;5004071;28;10921;-71
2021/03/22 11:25:43;;;;;;;;;5.75;5.75;;;;;;;;5000081;28;10907;-71
2021/03/22 11:28:26;;;;;;;;;15.00;14.00;;;;;;;;5003867;28;10513;-71
2021/03/22 11:31:02;;;;;;;;;23.75;18.25;;;;;;;;4999860;28;10695;-72
2021/03/22 11:33:37;;;;;;;;;14.25;14.25;;;;;;;;5014852;28;10770;-72
2021/03/22 11:36:09;;;;;;;;;22.00;20.75;;;;;;;;5004676;28;10694;-71
2021/03/22 11:38:49;;;;;;;;;35.75;27.00;;;;;;;;5004609;28;10909;-71
2021/03/22 11:41:29;;;;;;;;;15.50;13.25;;;;;;;;5001523;28;11149;-71
2021/03/22 11:44:05;;;;;;;;;17.25;15.25;;;;;;;;5005743;28;10759;-73
2021/03/22 11:46:34;;;;;;;;;14.25;12.00;;;;;;;;5003220;28;10672;-73
2021/03/22 11:49:01;;;;;;;;;14.75;12.50;;;;;;;;5004757;28;10871;-74
2021/03/22 11:51:28;;;;;;;;;17.50;16.00;;;;;;;;5002999;28;10832;-73
2021/03/22 11:54:00;;;;;;;;;16.50;13.00;;;;;;;;5003959;28;10775;-74
2021/03/22 11:56:28;;;;;;;;;8.00;8.00;;;;;;;;5003086;28;10675;-74
2021/03/22 11:59:16;;;;;;;;;14.50;12.00;;;;;;;;5003974;28;11434;-74
2021/03/22 12:01:59;;;;;;;;;11.00;10.75;;;;;;;;4999311;28;10827;-73
2021/03/22 12:04:26;;;;;;;;;15.50;12.00;;;;;;;;5004678;28;10673;-72
2021/03/22 12:06:59;;;;;;;;;8.75;7.75;;;;;;;;5002601;28;10554;-72
2021/03/22 12:09:28;;;;;;;;;20.75;16.50;;;;;;;;5007303;28;10864;-72
2021/03/22 12:11:56;;;;;;;;;10.75;10.00;;;;;;;;5005498;28;10751;-71
2021/03/22 12:14:23;;;;;;;;;11.25;11.25;;;;;;;;5002719;28;10820;-72
2021/03/22 12:16:57;;;;;;;;;17.50;16.00;;;;;;;;5004110;28;11118;-72
2021/03/22 12:19:30;;;;;;;;;8.50;8.00;;;;;;;;5002751;28;11076;-73
2021/03/22 12:21:57;;;;;;;;;11.00;11.00;;;;;;;;5001774;28;10736;-71
2021/03/22 12:24:24;;;;;;;;;12.00;12.00;;;;;;;;5001289;28;10848;-72
2021/03/22 12:26:51;;;;;;;;;7.00;7.00;;;;;;;;5002233;28;10899;-72
2021/03/22 12:29:18;;;;;;;;;6.00;6.00;;;;;;;;4998673;28;10573;-72
2021/03/22 12:31:47;;;;;;;;;19.00;17.25;;;;;;;;5002405;28;10844;-71
2021/03/22 12:34:18;;;;;;;;;10.00;10.00;;;;;;;;5005798;28;10934;-72
2021/03/22 12:36:46;;;;;;;;;8.75;8.75;;;;;;;;5004200;28;10703;-70
2021/03/22 12:39:19;;;;;;;;;32.00;27.75;;;;;;;;5002270;28;10736;-71
2021/03/22 12:41:47;;;;;;;;;17.25;17.25;;;;;;;;5004178;28;11289;-70
2021/03/22 12:44:14;;;;;;;;;16.75;13.00;;;;;;;;5001438;28;11013;-73
2021/03/22 12:46:41;;;;;;;;;17.25;11.00;;;;;;;;5002626;28;10985;-71
2021/03/22 12:49:12;;;;;;;;;23.75;19.00;;;;;;;;5001528;28;11026;-71
2021/03/22 12:51:40;;;;;;;;;16.50;12.00;;;;;;;;5002304;28;11163;-71
2021/03/22 12:54:07;;;;;;;;;15.75;15.75;;;;;;;;5000410;28;10998;-71
2021/03/22 12:56:34;;;;;;;;;7.75;7.75;;;;;;;;5001626;28;11095;-70
2021/03/22 12:59:01;;;;;;;;;8.75;8.75;;;;;;;;5001666;28;10783;-70
2021/03/22 13:01:28;;;;;;;;;12.75;7.75;;;;;;;;5000714;28;11547;-71
2021/03/22 13:03:55;;;;;;;;;13.00;11.00;;;;;;;;5002627;28;10683;-71
2021/03/22 13:06:24;;;;;;;;;15.75;13.00;;;;;;;;5002649;28;10820;-71
2021/03/22 13:08:52;;;;;;;;;8.50;8.50;;;;;;;;5002084;28;10744;-72
2021/03/22 13:11:23;;;;;;;;;15.25;12.50;;;;;;;;5000259;28;10574;-72
2021/03/22 13:13:51;;;;;;;;;11.25;10.25;;;;;;;;5001858;28;10630;-71
2021/03/22 13:16:20;;;;;;;;;13.00;13.00;;;;;;;;5002815;28;10845;-73
2021/03/22 13:18:47;;;;;;;;;12.50;12.50;;;;;;;;5005373;28;11073;-73
2021/03/22 13:21:15;;;;;;;;;17.50;17.50;;;;;;;;5016797;28;10970;-73
2021/03/22 13:23:44;;;;;;;;;10.00;10.00;;;;;;;;4999624;28;11146;-72
2021/03/22 13:26:14;;;;;;;;;14.50;11.50;;;;;;;;5013979;28;10612;-73
2021/03/22 13:28:43;;;;;;;;;22.00;16.50;;;;;;;;5009542;28;10830;-73
2021/03/22 13:31:14;;;;;;;;;10.00;10.00;;;;;;;;5003442;28;11127;-73
2021/03/22 13:33:41;;;;;;;;;11.75;10.50;;;;;;;;5004155;28;10597;-73
2021/03/22 13:36:11;;;;;;;;;13.75;13.75;;;;;;;;5002452;28;10896;-72
2021/03/22 13:38:38;;;;;;;;;14.50;12.00;;;;;;;;5002217;28;11180;-73
2021/03/22 13:41:13;;;;;;;;;13.00;12.00;;;;;;;;5001897;28;11174;-73
2021/03/22 13:43:41;;;;;;;;;12.75;12.75;;;;;;;;5003981;28;10978;-72
2021/03/22 13:46:08;;;;;;;;;15.75;15.75;;;;;;;;5002828;28;11354;-73
2021/03/22 13:48:34;;;;;;;;;16.25;11.50;;;;;;;;5003807;28;11199;-72
2021/03/22 13:51:02;;;;;;;;;14.25;14.25;;;;;;;;5002964;28;11013;-72
2021/03/22 13:53:28;;;;;;;;;10.75;10.75;;;;;;;;5002851;28;11052;-73
2021/03/22 13:55:55;;;;;;;;;16.50;16.25;;;;;;;;5003213;28;11234;-73
2021/03/22 13:58:24;;;;;;;;;17.25;13.50;;;;;;;;5001491;28;11565;-72
2021/03/22 14:00:53;;;;;;;;;9.50;6.50;;;;;;;;4999657;28;11695;-72
2021/03/22 14:03:21;;;;;;;;;8.00;8.00;;;;;;;;5002029;28;10595;-72
2021/03/22 14:05:49;;;;;;;;;16.25;13.25;;;;;;;;4996728;28;10580;-72
2021/03/22 14:08:17;;;;;;;;;22.50;19.50;;;;;;;;5002397;28;10535;-72
2021/03/22 14:10:43;;;;;;;;;22.75;22.50;;;;;;;;5002110;28;10589;-73
2021/03/22 14:13:11;;;;;;;;;21.50;16.75;;;;;;;;5002454;28;10635;-73
2021/03/22 14:15:40;;;;;;;;;17.00;14.00;;;;;;;;5002093;28;10371;-72
2021/03/22 14:18:10;;;;;;;;;8.75;8.75;;;;;;;;5003744;28;10210;-71
2021/03/22 14:20:38;;;;;;;;;18.25;15.00;;;;;;;;4993940;28;9894;-72
2021/03/22 14:23:06;;;;;;;;;10.50;9.75;;;;;;;;5002213;28;10050;-71
2021/03/22 14:25:33;;;;;;;;;27.25;23.00;;;;;;;;4999887;28;10025;-71
2021/03/22 14:28:00;;;;;;;;;17.75;17.75;;;;;;;;5001028;28;10261;-72
2021/03/22 14:30:30;;;;;;;;;19.75;18.00;;;;;;;;5001734;28;10078;-72
2021/03/22 14:32:57;;;;;;;;;25.75;18.00;;;;;;;;5007359;28;10327;-71
2021/03/22 14:35:27;;;;;;;;;16.00;12.50;;;;;;;;5003558;28;10124;-71
2021/03/22 14:37:54;;;;;;;;;17.50;15.00;;;;;;;;5001787;28;9959;-71
2021/03/22 14:40:22;;;;;;;;;15.50;10.25;;;;;;;;5003103;28;10896;-72
2021/03/22 14:42:51;;;;;;;;;19.25;17.00;;;;;;;;5000086;28;10103;-72
2021/03/22 14:45:20;;;;;;;;;14.25;9.50;;;;;;;;5003361;28;11120;-72
2021/03/22 14:47:47;;;;;;;;;23.75;21.50;;;;;;;;5003269;28;10216;-73
2021/03/22 14:50:16;;;;;;;;;14.50;14.25;;;;;;;;5003143;28;10462;-71
2021/03/22 14:52:45;;;;;;;;;17.00;17.00;;;;;;;;5004645;28;10208;-72
2021/03/22 14:55:13;;;;;;;;;14.25;12.00;;;;;;;;5004983;28;10298;-72
2021/03/22 14:57:40;;;;;;;;;19.25;19.25;;;;;;;;5005701;28;10901;-73
2021/03/22 15:00:08;;;;;;;;;26.00;23.75;;;;;;;;5007682;28;10288;-72
2021/03/22 15:02:35;;;;;;;;;14.00;14.00;;;;;;;;5005911;28;10589;-72